Terminal Aerodrome Forecast
Issued by NWS

Home | Current Version | Previous Version | Text Only | Print | Product List | Glossary On
Versions: 1 2 3 4 5 6 7 8 9 10 11 12 13 14
000
FTUS43 KTOP 050520
TAFMHK
TAF
KMHK 050520Z 0506/0606 15003KT P6SM BKN100
     FM050900 09005KT P6SM -SHRA VCTS SCT015 BKN040CB
      TEMPO 0510/0513 5SM BR OVC012
     FM051300 12005KT P6SM BKN050
     FM051800 12007KT P6SM VCTS BKN050CB
     FM052200 07005KT P6SM SCT250=

USA.gov is the U.S. government's official web portal to all federal, state and local government web resources and services.